createdAt,value
2019-05-20T00:00:34.331Z,15.90
2019-05-20T00:03:04.166Z,15.80
2019-05-20T00:05:34.166Z,15.80
2019-05-20T00:08:03.906Z,15.80
2019-05-20T00:10:33.765Z,15.80
2019-05-20T00:13:03.622Z,15.80
2019-05-20T00:15:33.509Z,15.80
2019-05-20T00:18:03.472Z,15.70
2019-05-20T00:20:33.525Z,15.70
2019-05-20T00:23:03.450Z,15.60
2019-05-20T00:25:33.331Z,15.60
2019-05-20T00:28:03.364Z,15.50
2019-05-20T00:30:36.795Z,15.50
2019-05-20T00:33:06.691Z,15.50
2019-05-20T00:35:36.745Z,15.40
2019-05-20T00:38:06.630Z,15.40
2019-05-20T00:40:36.431Z,15.30
2019-05-20T00:43:06.276Z,15.20
2019-05-20T00:45:36.202Z,15.20
2019-05-20T00:48:06.010Z,15.10
2019-05-20T00:50:36.260Z,15.10
2019-05-20T00:53:06.057Z,15.10
2019-05-20T00:55:37.550Z,15.00
2019-05-20T00:58:07.430Z,14.90
2019-05-20T01:00:37.525Z,14.80
2019-05-20T01:03:07.338Z,14.70
2019-05-20T01:05:37.234Z,14.70
2019-05-20T01:08:06.998Z,14.60
2019-05-20T01:10:36.909Z,14.50
2019-05-20T01:13:06.783Z,14.40
2019-05-20T01:15:36.647Z,14.50
2019-05-20T01:18:06.577Z,14.50
2019-05-20T01:20:36.486Z,14.50
2019-05-20T01:23:06.551Z,14.40
2019-05-20T01:25:36.410Z,14.40
2019-05-20T01:28:06.200Z,14.40
2019-05-20T01:30:36.137Z,14.30
2019-05-20T01:33:13.636Z,14.30
2019-05-20T01:35:37.626Z,14.30
2019-05-20T01:38:08.653Z,14.40
2019-05-20T01:40:38.661Z,14.30
2019-05-20T01:43:08.433Z,14.40
2019-05-20T01:45:38.433Z,14.40
2019-05-20T01:48:08.252Z,14.30
2019-05-20T01:50:38.119Z,14.30
2019-05-20T01:53:08.088Z,14.30
2019-05-20T01:55:37.925Z,14.30
2019-05-20T01:58:07.953Z,14.30
2019-05-20T02:00:37.821Z,14.30
2019-05-20T02:03:07.684Z,14.30
2019-05-20T02:05:37.594Z,14.30
2019-05-20T02:08:07.418Z,14.20
2019-05-20T02:10:37.357Z,14.20
2019-05-20T02:13:07.204Z,14.20
2019-05-20T02:15:49.305Z,14.20
2019-05-20T02:18:19.616Z,14.10
2019-05-20T02:20:49.471Z,14.10
2019-05-20T02:23:19.543Z,14.00
2019-05-20T02:25:51.767Z,14.00
2019-05-20T02:28:21.578Z,14.00
2019-05-20T02:30:56.889Z,14.00
2019-05-20T02:33:26.110Z,14.00
2019-05-20T02:35:55.992Z,13.90
2019-05-20T02:38:25.844Z,13.90
2019-05-20T02:40:55.818Z,13.90
2019-05-20T02:43:25.664Z,13.90
2019-05-20T02:45:55.622Z,13.90
2019-05-20T02:48:25.466Z,14.00
2019-05-20T02:50:55.338Z,14.00
2019-05-20T02:53:25.279Z,14.00
2019-05-20T02:55:55.251Z,13.90
2019-05-20T02:58:25.308Z,14.00
2019-05-20T03:00:55.164Z,13.90
2019-05-20T03:03:24.943Z,13.90
2019-05-20T03:05:54.797Z,13.90
2019-05-20T03:08:24.595Z,13.80
2019-05-20T03:10:54.517Z,13.80
2019-05-20T03:13:24.344Z,13.80
2019-05-20T03:15:54.198Z,13.80
2019-05-20T03:18:24.182Z,13.80
2019-05-20T03:20:54.087Z,13.80
2019-05-20T03:23:24.026Z,13.80
2019-05-20T03:25:53.967Z,13.80
2019-05-20T03:28:24.185Z,13.80
2019-05-20T03:30:54.050Z,13.70
2019-05-20T03:33:24.192Z,13.70
2019-05-20T03:35:54.072Z,13.70
2019-05-20T03:38:23.870Z,13.80
2019-05-20T03:40:53.753Z,13.80
2019-05-20T03:43:23.634Z,13.90
2019-05-20T03:45:53.791Z,13.90
2019-05-20T03:48:23.578Z,13.90
2019-05-20T03:50:53.487Z,14.00
2019-05-20T03:53:23.409Z,14.10
2019-05-20T03:55:53.294Z,14.20
2019-05-20T03:58:23.240Z,14.20
2019-05-20T04:00:53.022Z,14.30
2019-05-20T04:03:22.948Z,14.40
2019-05-20T04:05:52.801Z,14.50
2019-05-20T04:08:22.759Z,14.60
2019-05-20T04:10:52.570Z,14.70
2019-05-20T04:13:22.570Z,14.80
2019-05-20T04:15:52.460Z,14.90
2019-05-20T04:18:22.354Z,15.00
2019-05-20T04:20:52.362Z,15.10
2019-05-20T04:23:22.404Z,15.30
2019-05-20T04:25:52.222Z,15.40
2019-05-20T04:28:22.179Z,15.60
2019-05-20T04:30:52.004Z,15.80
2019-05-20T04:33:21.961Z,15.90
2019-05-20T04:35:51.827Z,16.10
2019-05-20T04:38:23.996Z,16.30
2019-05-20T04:40:53.832Z,16.40
2019-05-20T04:43:23.767Z,16.60
2019-05-20T04:45:54.251Z,16.70
2019-05-20T04:48:24.257Z,16.70
2019-05-20T04:50:54.102Z,16.80
2019-05-20T04:53:24.090Z,16.80
2019-05-20T04:55:53.920Z,16.80
2019-05-20T04:58:24.066Z,16.70
2019-05-20T05:00:58.988Z,16.70
2019-05-20T05:03:29.009Z,16.50
2019-05-20T05:05:58.907Z,16.40
2019-05-20T05:08:28.902Z,16.40
2019-05-20T05:10:59.113Z,16.40
2019-05-20T05:13:29.237Z,16.50
2019-05-20T05:15:59.290Z,16.50
2019-05-20T05:18:29.406Z,16.50
2019-05-20T05:20:59.291Z,16.50
2019-05-20T05:23:29.233Z,16.70
2019-05-20T05:25:59.052Z,17.00
2019-05-20T05:28:28.937Z,17.30
2019-05-20T05:30:58.814Z,17.60
2019-05-20T05:33:28.795Z,17.90
2019-05-20T05:35:58.734Z,18.10
2019-05-20T05:38:28.679Z,18.30
2019-05-20T05:40:58.672Z,18.40
2019-05-20T05:43:29.849Z,18.30
2019-05-20T05:45:59.919Z,18.20
2019-05-20T05:48:30.029Z,18.10
2019-05-20T05:50:59.950Z,17.90
2019-05-20T05:53:31.384Z,17.60
2019-05-20T05:56:03.430Z,17.50
2019-05-20T05:58:35.706Z,17.50
2019-05-20T06:01:08.098Z,17.60
2019-05-20T06:03:39.998Z,17.70
2019-05-20T06:06:12.599Z,18.00
2019-05-20T06:08:41.379Z,18.30
2019-05-20T06:11:11.199Z,18.60
2019-05-20T06:13:43.881Z,18.80
2019-05-20T06:16:13.732Z,19.10
2019-05-20T06:18:43.848Z,19.40
2019-05-20T06:21:13.696Z,19.50
2019-05-20T06:23:43.667Z,19.70
2019-05-20T06:26:13.589Z,19.80
2019-05-20T06:28:43.517Z,19.70
2019-05-20T06:31:13.382Z,19.80
2019-05-20T06:33:43.505Z,19.90
2019-05-20T06:36:25.981Z,20.00
2019-05-20T06:38:47.262Z,20.00
2019-05-20T06:41:17.135Z,20.00
2019-05-20T06:43:47.190Z,20.00
2019-05-20T06:46:17.207Z,20.10
2019-05-20T06:48:47.327Z,20.20
2019-05-20T06:51:17.215Z,20.50
2019-05-20T06:53:47.210Z,20.80
2019-05-20T06:56:17.097Z,20.90
2019-05-20T06:58:46.995Z,21.00
2019-05-20T07:01:16.910Z,21.20
2019-05-20T07:03:47.029Z,21.40
2019-05-20T07:06:17.085Z,21.50
2019-05-20T07:08:47.049Z,21.70
2019-05-20T07:11:17.080Z,21.90
2019-05-20T07:13:46.944Z,22.00
2019-05-20T07:16:16.893Z,22.20
2019-05-20T07:18:46.853Z,22.30
2019-05-20T07:21:16.727Z,22.50
2019-05-20T07:23:46.705Z,22.70
2019-05-20T07:26:17.531Z,22.80
2019-05-20T07:28:47.424Z,22.90
2019-05-20T07:31:17.316Z,23.00
2019-05-20T07:33:47.161Z,23.00
2019-05-20T07:36:17.024Z,22.90
2019-05-20T07:38:47.604Z,22.80
2019-05-20T07:41:17.484Z,22.60
2019-05-20T07:43:47.445Z,22.60
2019-05-20T07:46:17.729Z,22.70
2019-05-20T07:48:48.163Z,22.80
2019-05-20T07:51:18.644Z,22.80
2019-05-20T07:53:48.808Z,22.70
2019-05-20T07:56:22.081Z,22.80
2019-05-20T07:58:54.934Z,22.90
2019-05-20T08:01:26.263Z,23.00
2019-05-20T08:03:56.098Z,23.20
2019-05-20T08:06:26.048Z,23.40
2019-05-20T08:08:56.019Z,23.50
2019-05-20T08:11:25.845Z,23.60
2019-05-20T08:13:55.710Z,23.60
2019-05-20T08:16:25.654Z,23.70
2019-05-20T08:18:55.643Z,23.60
2019-05-20T08:21:25.640Z,23.50
2019-05-20T08:23:55.518Z,23.40
2019-05-20T08:26:25.788Z,23.40
2019-05-20T08:28:55.681Z,23.10
2019-05-20T08:31:25.844Z,23.00
2019-05-20T08:33:55.860Z,23.00
2019-05-20T08:36:27.763Z,23.10
2019-05-20T08:39:02.982Z,23.40
2019-05-20T08:41:33.220Z,23.40
2019-05-20T08:44:09.354Z,23.50
2019-05-20T08:46:44.040Z,23.80
2019-05-20T08:49:21.772Z,24.20
2019-05-20T08:51:53.078Z,24.50
2019-05-20T08:54:28.708Z,24.50
2019-05-20T08:57:06.460Z,24.40
2019-05-20T08:59:50.486Z,24.50
2019-05-20T09:02:30.851Z,24.50
2019-05-20T09:05:07.121Z,24.50
2019-05-20T09:08:02.881Z,24.30
2019-05-20T09:10:25.270Z,24.20
2019-05-20T09:12:56.452Z,24.30
2019-05-20T09:15:32.587Z,24.40
2019-05-20T09:18:06.936Z,24.50
2019-05-20T09:20:37.254Z,24.60
2019-05-20T09:23:13.579Z,24.70
2019-05-20T09:25:46.847Z,24.60
2019-05-20T09:28:36.827Z,24.50
2019-05-20T09:31:14.488Z,24.60
2019-05-20T09:33:51.566Z,24.50
2019-05-20T09:36:25.930Z,24.50
2019-05-20T09:39:00.810Z,24.60
2019-05-20T09:41:31.947Z,24.70
2019-05-20T09:44:04.833Z,24.70
2019-05-20T09:46:37.919Z,24.80
2019-05-20T09:49:13.810Z,24.80
2019-05-20T09:51:45.234Z,25.00
2019-05-20T09:54:20.194Z,25.00
2019-05-20T09:56:50.340Z,25.00
2019-05-20T09:59:21.630Z,25.10
2019-05-20T10:01:53.000Z,25.20
2019-05-20T10:04:23.574Z,25.40
2019-05-20T10:06:55.817Z,25.40
2019-05-20T10:09:26.348Z,25.40
2019-05-20T10:11:56.953Z,25.20
2019-05-20T10:14:30.736Z,25.10
2019-05-20T10:17:02.507Z,25.00
2019-05-20T10:19:33.445Z,25.00
2019-05-20T10:22:09.224Z,25.00
2019-05-20T10:24:42.570Z,25.00
2019-05-20T10:27:13.841Z,25.00
2019-05-20T10:29:44.599Z,25.00
2019-05-20T10:32:14.953Z,24.90
2019-05-20T10:34:45.296Z,25.00
2019-05-20T10:37:15.656Z,25.00
2019-05-20T10:39:47.046Z,25.00
2019-05-20T10:42:18.958Z,25.10
2019-05-20T10:44:55.699Z,25.20
2019-05-20T10:47:28.991Z,25.30
2019-05-20T10:50:04.892Z,25.40
2019-05-20T10:52:38.345Z,25.50
2019-05-20T10:55:09.974Z,25.60
2019-05-20T10:57:41.609Z,25.70
2019-05-20T11:00:17.755Z,25.80
2019-05-20T11:02:54.702Z,25.80
2019-05-20T11:05:29.701Z,25.70
2019-05-20T11:08:02.199Z,25.70
2019-05-20T11:10:33.180Z,25.90
2019-05-20T11:13:05.874Z,26.00
2019-05-20T11:15:43.009Z,26.00
2019-05-20T11:18:41.947Z,26.00
2019-05-20T11:20:59.935Z,25.80
2019-05-20T11:23:30.156Z,25.60
2019-05-20T11:26:00.341Z,25.40
2019-05-20T11:28:32.627Z,25.20
2019-05-20T11:31:02.559Z,25.10
2019-05-20T11:33:33.162Z,24.90
2019-05-20T11:36:12.177Z,24.80
2019-05-20T11:38:43.420Z,24.60
2019-05-20T11:41:16.532Z,24.40
2019-05-20T11:43:47.767Z,24.30
2019-05-20T11:46:17.764Z,24.20
2019-05-20T11:48:47.783Z,24.10
2019-05-20T11:51:18.423Z,24.00
2019-05-20T11:53:51.465Z,24.10
2019-05-20T11:56:21.588Z,24.20
2019-05-20T11:58:51.573Z,24.40
2019-05-20T12:01:21.617Z,24.70
2019-05-20T12:03:51.697Z,24.80
2019-05-20T12:06:23.418Z,24.90
2019-05-20T12:08:58.885Z,24.90
2019-05-20T12:11:29.678Z,24.90
2019-05-20T12:14:13.244Z,24.80
2019-05-20T12:16:47.957Z,24.70
2019-05-20T12:19:25.490Z,24.60
2019-05-20T12:21:57.021Z,24.50
2019-05-20T12:24:31.227Z,24.50
2019-05-20T12:27:13.216Z,24.40
2019-05-20T12:29:45.049Z,24.40
2019-05-20T12:32:28.913Z,24.30
2019-05-20T12:35:00.959Z,24.30
2019-05-20T12:37:30.897Z,24.40
2019-05-20T12:40:07.139Z,24.40
2019-05-20T12:42:33.601Z,24.40
2019-05-20T12:45:13.025Z,24.60
2019-05-20T12:47:48.935Z,24.70
2019-05-20T12:50:25.245Z,24.80
2019-05-20T12:53:02.232Z,24.90
2019-05-20T12:55:44.535Z,24.90
2019-05-20T12:58:14.649Z,25.00
2019-05-20T13:00:47.602Z,25.10
2019-05-20T13:03:19.066Z,25.10
2019-05-20T13:05:54.510Z,25.10
2019-05-20T13:08:27.987Z,25.10
2019-05-20T13:10:58.137Z,25.00
2019-05-20T13:13:28.332Z,25.00
2019-05-20T13:15:59.320Z,25.00
2019-05-20T13:18:36.790Z,25.10
2019-05-20T13:21:11.108Z,25.00
2019-05-20T13:23:49.045Z,25.00
2019-05-20T13:26:20.708Z,25.00
2019-05-20T13:29:00.264Z,24.90
2019-05-20T13:31:30.583Z,24.80
2019-05-20T13:34:01.883Z,24.80
2019-05-20T13:36:44.709Z,24.70
2019-05-20T13:39:14.729Z,24.60
2019-05-20T13:41:54.860Z,24.50
2019-05-20T13:44:28.411Z,24.40
2019-05-20T13:46:59.307Z,24.40
2019-05-20T13:49:38.534Z,24.20
2019-05-20T13:52:18.387Z,24.00
2019-05-20T13:54:54.572Z,23.80
2019-05-20T13:57:34.408Z,23.70
2019-05-20T14:00:10.671Z,23.50
2019-05-20T14:02:49.156Z,23.30
2019-05-20T14:05:25.460Z,23.10
2019-05-20T14:07:55.990Z,23.00
2019-05-20T14:10:30.508Z,22.90
2019-05-20T14:13:10.657Z,22.80
2019-05-20T14:15:46.609Z,22.70
2019-05-20T14:18:19.588Z,22.60
2019-05-20T14:20:59.973Z,22.50
2019-05-20T14:23:32.532Z,22.40
2019-05-20T14:26:08.208Z,22.30
2019-05-20T14:28:38.919Z,22.10
2019-05-20T14:31:10.047Z,21.90
2019-05-20T14:33:40.317Z,21.60
2019-05-20T14:36:37.781Z,21.30
2019-05-20T14:38:49.971Z,21.00
2019-05-20T14:41:24.462Z,20.70
2019-05-20T14:43:59.811Z,20.30
2019-05-20T14:46:36.227Z,20.10
2019-05-20T14:49:17.644Z,19.80
2019-05-20T14:51:50.146Z,19.60
2019-05-20T14:54:24.852Z,19.40
2019-05-20T14:56:59.590Z,19.30
2019-05-20T14:59:29.970Z,19.10
2019-05-20T15:02:05.933Z,19.00
2019-05-20T15:04:43.901Z,18.90
2019-05-20T15:07:28.404Z,18.80
2019-05-20T15:09:56.714Z,18.80
2019-05-20T15:12:39.199Z,18.70
2019-05-20T15:15:14.506Z,18.60
2019-05-20T15:17:45.798Z,18.50
2019-05-20T15:20:16.770Z,18.50
2019-05-20T15:22:50.888Z,18.40
2019-05-20T15:25:32.882Z,18.40
2019-05-20T15:28:11.425Z,18.30
2019-05-20T15:30:42.358Z,18.30
2019-05-20T15:33:18.983Z,18.20
2019-05-20T15:35:54.846Z,18.20
2019-05-20T15:38:40.233Z,18.20
2019-05-20T15:41:16.310Z,18.20
2019-05-20T16:15:01.162Z,16.90
2019-05-20T16:17:35.664Z,16.80
2019-05-20T16:20:23.272Z,16.70
2019-05-20T16:22:57.489Z,16.70
2019-05-20T16:25:27.589Z,16.60
2019-05-20T16:27:58.644Z,16.60
2019-05-20T16:30:44.277Z,16.50
2019-05-20T16:33:21.937Z,16.50
2019-05-20T16:35:53.260Z,16.50
2019-05-20T16:38:31.733Z,16.50
2019-05-20T16:41:07.326Z,16.50
2019-05-20T16:43:38.757Z,16.50
2019-05-20T16:46:08.725Z,16.60
2019-05-20T16:48:38.653Z,16.70
2019-05-20T16:51:09.136Z,16.80
2019-05-20T16:53:39.521Z,16.90
2019-05-20T16:56:10.702Z,17.10
2019-05-20T16:58:44.782Z,17.20
2019-05-20T17:01:45.617Z,17.40
2019-05-20T17:04:06.769Z,17.50
2019-05-20T17:06:38.862Z,17.60
2019-05-20T17:09:16.737Z,17.70
2019-05-20T17:11:48.652Z,17.70
2019-05-20T17:14:24.041Z,17.70
2019-05-20T17:16:57.320Z,17.60
2019-05-20T17:19:29.211Z,17.60
2019-05-20T17:22:08.667Z,17.60
2019-05-20T17:24:41.550Z,17.60
2019-05-20T17:27:15.543Z,17.50
2019-05-20T17:29:51.555Z,17.50
2019-05-20T17:32:29.590Z,17.50
2019-05-20T17:35:08.302Z,17.40
2019-05-20T17:38:25.098Z,17.40
2019-05-20T17:41:02.737Z,17.40
2019-05-20T17:43:41.072Z,17.30
2019-05-20T17:46:13.400Z,17.20
2019-05-20T17:48:45.108Z,17.20
2019-05-20T17:51:16.422Z,17.10
2019-05-20T17:54:02.627Z,17.10
2019-05-20T17:56:33.028Z,17.10
2019-05-20T17:59:03.019Z,17.00
2019-05-20T18:01:33.589Z,17.00
2019-05-20T18:04:03.531Z,17.00
2019-05-20T18:06:33.655Z,17.00
2019-05-20T18:09:04.569Z,17.00
2019-05-20T18:11:34.827Z,17.00
2019-05-20T18:14:05.396Z,17.00
2019-05-20T18:16:35.645Z,17.00
2019-05-20T18:19:06.127Z,17.00
2019-05-20T18:21:36.135Z,17.00
2019-05-20T18:24:07.785Z,17.10
2019-05-20T18:26:37.794Z,17.00
2019-05-20T18:29:07.893Z,17.10
2019-05-20T18:31:37.815Z,17.10
2019-05-20T18:34:07.848Z,17.10
2019-05-20T18:36:37.844Z,17.10
2019-05-20T18:39:08.072Z,17.10
2019-05-20T18:41:38.341Z,17.10
2019-05-20T18:44:08.179Z,17.10
2019-05-20T18:46:38.166Z,17.10
2019-05-20T18:49:08.409Z,17.10
2019-05-20T18:51:39.553Z,17.00
2019-05-20T18:54:09.529Z,17.00
2019-05-20T18:56:39.569Z,17.00
2019-05-20T18:59:14.245Z,17.00
2019-05-20T19:02:02.151Z,16.90
2019-05-20T19:04:16.716Z,16.90
2019-05-20T19:06:48.898Z,16.80
2019-05-20T19:09:18.918Z,16.80
2019-05-20T19:11:50.695Z,16.70
2019-05-20T19:14:26.479Z,16.70
2019-05-20T19:16:56.741Z,16.70
2019-05-20T19:19:27.688Z,16.70
2019-05-20T19:21:57.626Z,16.80
2019-05-20T19:24:27.851Z,16.80
2019-05-20T19:27:01.302Z,16.80
2019-05-20T19:29:31.362Z,16.80
2019-05-20T19:32:02.474Z,16.80
2019-05-20T19:34:33.137Z,16.80
2019-05-20T19:40:05.104Z,16.80
2019-05-20T19:42:34.971Z,16.80
2019-05-20T19:45:05.228Z,16.80
2019-05-20T19:47:35.185Z,16.70
2019-05-20T19:50:05.393Z,16.70
2019-05-20T19:52:35.252Z,16.70
2019-05-20T19:55:05.323Z,16.60
2019-05-20T19:57:35.555Z,16.60
2019-05-20T20:00:06.126Z,16.50
2019-05-20T20:02:35.985Z,16.50
2019-05-20T20:05:06.446Z,16.40
2019-05-20T20:07:36.268Z,16.40
2019-05-20T20:10:06.308Z,16.40
2019-05-20T20:12:36.361Z,16.40
2019-05-20T20:15:07.776Z,16.30
2019-05-20T20:17:37.598Z,16.30
2019-05-20T20:20:08.185Z,16.20
2019-05-20T20:22:38.399Z,16.10
2019-05-20T20:25:08.427Z,15.90
2019-05-20T20:27:38.405Z,15.90
2019-05-20T20:30:08.614Z,15.80
2019-05-20T20:32:39.004Z,15.70
2019-05-20T20:35:09.379Z,15.70
2019-05-20T20:37:40.248Z,15.60
2019-05-20T20:40:10.301Z,15.60
2019-05-20T20:42:40.053Z,15.60
2019-05-20T20:45:10.123Z,15.50
2019-05-20T20:47:42.202Z,15.50
2019-05-20T20:50:12.645Z,15.40
2019-05-20T20:52:42.482Z,15.30
2019-05-20T20:55:12.546Z,15.30
2019-05-20T20:57:42.375Z,15.40
2019-05-20T21:00:12.480Z,15.30
2019-05-20T21:02:52.646Z,15.30
2019-05-20T21:05:13.913Z,15.30
2019-05-20T21:07:43.742Z,15.20
2019-05-20T21:10:13.835Z,15.20
2019-05-20T21:12:44.663Z,15.20
2019-05-20T21:15:14.723Z,15.20
2019-05-20T21:17:44.634Z,15.10
2019-05-20T21:20:14.575Z,15.10
2019-05-20T21:22:44.484Z,15.00
2019-05-20T21:25:14.684Z,15.10
2019-05-20T21:27:44.466Z,15.00
2019-05-20T21:30:14.510Z,15.00
2019-05-20T21:32:44.371Z,14.90
2019-05-20T21:35:14.288Z,14.90
2019-05-20T21:37:44.128Z,14.90
2019-05-20T21:40:13.983Z,14.80
2019-05-20T21:42:43.886Z,14.80
2019-05-20T21:45:13.915Z,14.70
2019-05-20T21:47:44.848Z,14.60
2019-05-20T21:50:14.969Z,14.50
2019-05-20T21:52:44.822Z,14.40
2019-05-20T21:55:14.828Z,14.30
2019-05-20T21:57:44.773Z,14.20
2019-05-20T22:00:18.606Z,14.20
2019-05-20T22:02:48.673Z,14.10
2019-05-20T22:05:18.675Z,14.00
2019-05-20T22:07:49.989Z,13.90
2019-05-20T22:10:19.830Z,13.80
2019-05-20T22:12:49.669Z,13.70
2019-05-20T22:15:19.579Z,13.70
2019-05-20T22:17:49.571Z,13.70
2019-05-20T22:20:19.529Z,13.60
2019-05-20T22:23:08.713Z,13.60
2019-05-20T22:25:38.722Z,13.50
2019-05-20T22:28:12.526Z,13.50
2019-05-20T22:30:40.103Z,13.50
2019-05-20T22:33:09.963Z,13.40
2019-05-20T22:35:39.804Z,13.40
2019-05-20T22:38:09.984Z,13.30
2019-05-20T22:40:39.864Z,13.30
2019-05-20T22:43:09.894Z,13.20
2019-05-20T22:45:39.836Z,13.20
2019-05-20T22:48:09.839Z,13.20
2019-05-20T22:50:39.912Z,13.20
2019-05-20T22:53:09.877Z,13.20
2019-05-20T22:55:39.934Z,13.10
2019-05-20T22:58:09.806Z,13.10
2019-05-20T23:00:39.676Z,13.10
2019-05-20T23:03:09.585Z,13.10
2019-05-20T23:05:39.584Z,13.10
2019-05-20T23:08:09.821Z,13.00
2019-05-20T23:10:39.777Z,13.00
2019-05-20T23:13:09.686Z,13.00
2019-05-20T23:15:39.541Z,13.00
2019-05-20T23:18:09.678Z,12.90
2019-05-20T23:20:39.573Z,12.90
2019-05-20T23:23:09.659Z,12.90
2019-05-20T23:25:39.532Z,12.80
2019-05-20T23:28:09.414Z,12.80
2019-05-20T23:30:39.406Z,12.70
2019-05-20T23:33:09.294Z,12.60
2019-05-20T23:35:39.308Z,12.60
2019-05-20T23:38:09.205Z,12.60
2019-05-20T23:40:39.326Z,12.50
2019-05-20T23:43:09.194Z,12.50
2019-05-20T23:45:39.142Z,12.50
2019-05-20T23:48:09.030Z,12.50
2019-05-20T23:50:39.038Z,12.50
2019-05-20T23:53:09.018Z,12.50
2019-05-20T23:55:38.853Z,12.50
2019-05-20T23:58:08.818Z,12.50
